Time;durP1;ratioP1;P1;durP2;ratioP2;P2;SDS_P1;SDS_P2;PMS_P1;PMS_P2;Temp;Humidity;BMP_temperature;BMP_pressure;BME280_temperature;BME280_humidity;BME280_pressure;Samples;Min_cycle;Max_cycle;Signal;HPM_P1;HPM_P2
2023/11/08 00:04:00;;;;;;;;;;;;;;;17.91;43.93;95792.91;10474383;28;2535;-54
2023/11/08 00:09:00;;;;;;;;;;;;;;;17.89;43.81;95790.53;10461238;28;2624;-56
2023/11/08 00:14:00;;;;;;;;;;;;;;;17.87;44.11;95795.25;10475048;28;2642;-55
2023/11/08 00:19:00;;;;;;;;;;;;;;;17.85;43.81;95792.09;10472712;28;2567;-55
2023/11/08 00:24:02;;;;;;;;;;;;;;;17.84;43.90;95801.03;10467830;28;2605;-54
2023/11/08 00:29:02;;;;;;;;;;;;;;;17.83;43.84;95799.44;10472342;28;2677;-54
2023/11/08 00:34:03;;;;;;;;;;;;;;;17.82;44.00;95802.31;10478593;28;2716;-55
2023/11/08 00:39:06;;;;;;;;;;;;;;;17.81;43.87;95809.38;10478640;28;2675;-55
2023/11/08 00:44:09;;;;;;;;;;;;;;;17.79;43.86;95821.16;10470101;28;4789;-54
2023/11/08 00:49:12;;;;;;;;;;;;;;;17.78;43.97;95823.00;10475896;28;2684;-56
2023/11/08 00:54:13;;;;;;;;;;;;;;;17.77;43.58;95821.44;10481272;28;2632;-54
2023/11/08 00:59:14;;;;;;;;;;;;;;;17.76;43.78;95819.84;10473984;28;2553;-55
2023/11/08 01:04:14;;;;;;;;;;;;;;;17.76;43.73;95821.69;10478391;28;2627;-55
2023/11/08 01:09:15;;;;;;;;;;;;;;;17.74;43.87;95829.03;10480063;28;2812;-54
2023/11/08 01:14:15;;;;;;;;;;;;;;;17.74;43.85;95821.16;10475970;28;2581;-56
2023/11/08 01:19:15;;;;;;;;;;;;;;;17.72;43.64;95825.88;10483181;28;2592;-54
2023/11/08 01:24:16;;;;;;;;;;;;;;;17.72;43.58;95820.63;10484765;28;2586;-55
2023/11/08 01:29:18;;;;;;;;;;;;;;;17.72;43.66;95823.25;10466112;28;2558;-57
2023/11/08 01:34:19;;;;;;;;;;;;;;;17.70;43.58;95820.09;10476840;28;2651;-54
2023/11/08 01:39:19;;;;;;;;;;;;;;;17.68;43.62;95809.81;10478158;28;2762;-55
2023/11/08 01:44:22;;;;;;;;;;;;;;;17.67;43.40;95808.28;10479754;28;4772;-54
2023/11/08 01:49:23;;;;;;;;;;;;;;;17.66;43.52;95804.06;10482776;28;2677;-53
2023/11/08 01:54:23;;;;;;;;;;;;;;;17.66;43.37;95803.28;10481864;28;2600;-55
2023/11/08 01:59:24;;;;;;;;;;;;;;;17.64;43.70;95800.91;10481240;28;2727;-55
2023/11/08 02:04:25;;;;;;;;;;;;;;;17.63;43.49;95794.09;10475187;28;2650;-54
2023/11/08 02:09:25;;;;;;;;;;;;;;;17.63;43.22;95807.19;10460162;28;2624;-54
2023/11/08 02:14:25;;;;;;;;;;;;;;;17.62;43.51;95802.97;10488849;28;2614;-53
2023/11/08 02:19:25;;;;;;;;;;;;;;;17.61;43.29;95800.63;10463978;28;2580;-54
2023/11/08 02:24:26;;;;;;;;;;;;;;;17.60;43.47;95799.03;10480929;28;2585;-57
2023/11/08 02:29:26;;;;;;;;;;;;;;;17.59;43.32;95798.25;10477216;28;2674;-55
2023/11/08 02:34:26;;;;;;;;;;;;;;;17.58;43.16;95799.28;10481945;28;2761;-55
2023/11/08 02:39:26;;;;;;;;;;;;;;;17.58;43.49;95791.41;10486184;28;2610;-56
2023/11/08 02:44:27;;;;;;;;;;;;;;;17.56;43.59;95796.13;10457471;28;4934;-54
2023/11/08 02:49:30;;;;;;;;;;;;;;;17.56;43.45;95804.00;10475336;28;2968;-55
2023/11/08 02:54:31;;;;;;;;;;;;;;;17.56;43.36;95800.56;10478457;28;2628;-55
2023/11/08 02:59:31;;;;;;;;;;;;;;;17.55;43.18;95793.78;10473824;28;2648;-55
2023/11/08 03:04:31;;;;;;;;;;;;;;;17.54;43.38;95794.78;10475751;28;2549;-55
2023/11/08 03:09:31;;;;;;;;;;;;;;;17.52;43.17;95797.69;10477414;28;2597;-53
2023/11/08 03:14:32;;;;;;;;;;;;;;;17.50;43.09;95789.28;10477579;28;2608;-55
2023/11/08 03:19:32;;;;;;;;;;;;;;;17.51;43.17;95797.94;10463380;28;2743;-57
2023/11/08 03:24:32;;;;;;;;;;;;;;;17.49;43.20;95806.06;10469168;28;2725;-55
2023/11/08 03:29:33;;;;;;;;;;;;;;;17.50;43.09;95805.00;10474497;28;2541;-56
2023/11/08 03:34:33;;;;;;;;;;;;;;;17.48;43.08;95801.81;10463285;28;2595;-56
2023/11/08 03:39:33;;;;;;;;;;;;;;;17.47;43.03;95813.34;10471867;28;2558;-54
2023/11/08 03:44:34;;;;;;;;;;;;;;;17.47;42.81;95809.94;10478679;28;4796;-55
2023/11/08 03:49:34;;;;;;;;;;;;;;;17.46;42.91;95808.34;10467267;28;2552;-56
2023/11/08 03:54:34;;;;;;;;;;;;;;;17.46;43.10;95811.75;10459717;28;2561;-56
2023/11/08 03:59:35;;;;;;;;;;;;;;;17.44;42.78;95813.84;10485553;28;2658;-54
2023/11/08 04:04:35;;;;;;;;;;;;;;;17.44;42.98;95816.47;10485700;28;2528;-57
2023/11/08 04:09:36;;;;;;;;;;;;;;;17.43;42.95;95819.34;10455727;28;2552;-58
2023/11/08 04:14:39;;;;;;;;;;;;;;;17.42;42.89;95817.75;10455784;28;2578;-56
2023/11/08 04:19:39;;;;;;;;;;;;;;;17.40;42.78;95810.16;10437447;28;2626;-56
2023/11/08 04:24:41;;;;;;;;;;;;;;;17.41;42.85;95816.19;10472198;28;2689;-54
2023/11/08 04:29:41;;;;;;;;;;;;;;;17.40;43.04;95814.59;10471626;28;2589;-53
2023/11/08 04:34:42;;;;;;;;;;;;;;;17.38;42.67;95821.91;10477017;28;2674;-55
2023/11/08 04:39:46;;;;;;;;;;;;;;;17.38;42.81;95822.72;10472313;28;2667;-56
2023/11/08 04:44:47;;;;;;;;;;;;;;;17.37;42.58;95831.59;10475228;28;4824;-56
2023/11/08 04:49:48;;;;;;;;;;;;;;;17.36;42.58;95834.47;10479904;28;2547;-53
2023/11/08 04:54:48;;;;;;;;;;;;;;;17.36;42.56;95840.50;10490726;28;2561;-56
2023/11/08 04:59:48;;;;;;;;;;;;;;;17.34;42.87;95832.13;10483069;28;2716;-55
2023/11/08 05:04:49;;;;;;;;;;;;;;;17.34;42.59;95833.94;10484192;28;2569;-57
2023/11/08 05:09:50;;;;;;;;;;;;;;;17.33;42.66;95830.53;10482429;28;2582;-55
2023/11/08 05:14:53;;;;;;;;;;;;;;;17.31;42.57;95829.97;10484482;28;2553;-56
2023/11/08 05:19:53;;;;;;;;;;;;;;;17.32;42.56;95830.78;10461779;28;2584;-52
2023/11/08 05:24:55;;;;;;;;;;;;;;;17.31;42.70;95840.47;10480757;28;2639;-55
2023/11/08 05:29:55;;;;;;;;;;;;;;;17.29;42.47;95839.16;10459374;28;2636;-55
2023/11/08 05:34:56;;;;;;;;;;;;;;;17.30;42.66;95840.72;10474971;28;2631;-55
2023/11/08 05:39:56;;;;;;;;;;;;;;;17.29;42.59;95836.53;10478142;28;2557;-54
2023/11/08 05:44:59;;;;;;;;;;;;;;;17.29;42.23;95831.28;10464225;28;4864;-56
2023/11/08 05:50:03;;;;;;;;;;;;;;;17.27;42.63;95839.38;10481188;28;2553;-55
2023/11/08 05:55:03;;;;;;;;;;;;;;;17.27;42.25;95831.53;10477962;28;2665;-55
2023/11/08 06:00:07;;;;;;;;;;;;;;;17.25;42.46;95838.84;10463047;28;2750;-54
2023/11/08 06:05:10;;;;;;;;;;;;;;;17.26;42.54;95848.31;10464889;28;2580;-55
2023/11/08 06:10:11;;;;;;;;;;;;;;;17.25;42.29;95844.09;10477517;28;2589;-55
2023/11/08 06:15:11;;;;;;;;;;;;;;;17.24;42.37;95852.19;10482447;28;2533;-53
2023/11/08 06:20:11;;;;;;;;;;;;;;;17.24;42.40;95857.44;10458565;28;2533;-53
2023/11/08 06:25:12;;;;;;;;;;;;;;;17.23;42.46;95866.34;10471960;28;2667;-54
2023/11/08 06:30:12;;;;;;;;;;;;;;;17.21;42.40;95866.59;10480654;28;2622;-55
2023/11/08 06:35:13;;;;;;;;;;;;;;;17.22;42.44;95865.56;10470473;28;2589;-56
2023/11/08 06:40:13;;;;;;;;;;;;;;;17.20;42.59;95872.88;10479162;28;2615;-54
2023/11/08 06:45:14;;;;;;;;;;;;;;;17.21;42.40;95877.06;10451770;28;4821;-56
2023/11/08 06:50:14;;;;;;;;;;;;;;;17.21;42.44;95878.91;10480240;28;2602;-55
2023/11/08 06:55:16;;;;;;;;;;;;;;;17.21;42.28;95881.53;10470932;28;2547;-56
2023/11/08 07:00:17;;;;;;;;;;;;;;;17.21;42.62;95890.16;10471670;28;2631;-56
2023/11/08 07:05:17;;;;;;;;;;;;;;;17.20;42.66;95893.03;10462520;28;2677;-57
2023/11/08 07:10:17;;;;;;;;;;;;;;;17.19;42.72;95900.09;10482973;28;3112;-55
2023/11/08 07:15:18;;;;;;;;;;;;;;;17.19;42.53;95905.34;10475948;28;2596;-55
2023/11/08 07:20:18;;;;;;;;;;;;;;;17.19;43.00;95920.28;10474631;28;2621;-54
2023/11/08 07:25:19;;;;;;;;;;;;;;;17.18;42.87;95918.69;10455000;28;2604;-56
2023/11/08 07:30:19;;;;;;;;;;;;;;;17.18;42.83;95914.25;10482358;28;2538;-53
2023/11/08 07:35:19;;;;;;;;;;;;;;;17.16;42.36;95911.09;10476406;28;2606;-54
2023/11/08 07:40:19;;;;;;;;;;;;;;;17.15;42.86;95912.09;10477956;28;2734;-52
2023/11/08 07:45:20;;;;;;;;;;;;;;;17.16;42.67;95894.56;10480420;28;4908;-56
2023/11/08 07:50:20;;;;;;;;;;;;;;;17.15;42.64;95893.78;10476076;28;2564;-54
2023/11/08 07:55:20;;;;;;;;;;;;;;;17.15;42.55;95901.63;10477853;28;2549;-53
2023/11/08 08:00:22;;;;;;;;;;;;;;;17.15;42.71;95899.00;10460300;28;2626;-59
2023/11/08 08:05:23;;;;;;;;;;;;;;;17.15;42.63;95901.63;10481010;28;2647;-57
2023/11/08 08:10:25;;;;;;;;;;;;;;;17.14;42.86;95913.16;10476575;28;2602;-56
2023/11/08 08:15:26;;;;;;;;;;;;;;;17.14;42.59;95920.22;10476889;28;3022;-56
2023/11/08 08:20:27;;;;;;;;;;;;;;;17.13;42.69;95919.41;10478574;28;2589;-55
2023/11/08 08:25:27;;;;;;;;;;;;;;;17.13;42.50;95924.66;10483015;28;2614;-54
2023/11/08 08:30:28;;;;;;;;;;;;;;;17.12;42.65;95920.47;10490655;28;2559;-54
2023/11/08 08:35:28;;;;;;;;;;;;;;;17.12;42.78;95923.09;10484298;28;2591;-57
2023/11/08 08:40:30;;;;;;;;;;;;;;;17.11;42.81;95921.50;10480348;28;2617;-56
2023/11/08 08:45:30;;;;;;;;;;;;;;;17.10;42.73;95925.94;10478577;28;4789;-56
2023/11/08 08:50:31;;;;;;;;;;;;;;;17.11;42.75;95921.50;10491857;28;3167;-54
2023/11/08 08:55:35;;;;;;;;;;;;;;;17.09;42.78;95920.94;10484194;28;2623;-55
2023/11/08 09:00:35;;;;;;;;;;;;;;;17.12;42.62;95933.56;10485959;28;2579;-56
2023/11/08 09:05:36;;;;;;;;;;;;;;;17.10;42.96;95927.78;10490899;28;2628;-57
2023/11/08 09:10:37;;;;;;;;;;;;;;;17.10;42.84;95933.03;10477745;28;2541;-57
2023/11/08 09:15:40;;;;;;;;;;;;;;;17.10;43.01;95931.19;10481141;28;2697;-55
2023/11/08 09:20:40;;;;;;;;;;;;;;;17.10;43.11;95940.88;10483383;28;2600;-53
2023/11/08 09:25:40;;;;;;;;;;;;;;;17.10;43.16;95935.66;10488116;28;2599;-57
2023/11/08 09:30:41;;;;;;;;;;;;;;;17.09;43.13;95934.84;10482734;28;2555;-56
2023/11/08 09:35:41;;;;;;;;;;;;;;;17.09;43.28;95944.53;10481701;28;2576;-58
2023/11/08 09:40:41;;;;;;;;;;;;;;;17.09;43.11;95928.81;10469039;28;2580;-57
2023/11/08 09:45:42;;;;;;;;;;;;;;;17.10;43.17;95938.25;10486114;28;4836;-56
2023/11/08 09:50:42;;;;;;;;;;;;;;;17.09;43.20;95934.06;10480969;28;2588;-57
2023/11/08 09:55:43;;;;;;;;;;;;;;;17.07;43.28;95936.91;10478280;28;2659;-56
2023/11/08 10:00:44;;;;;;;;;;;;;;;17.08;43.29;95928.00;10476057;28;2648;-56
2023/11/08 10:05:46;;;;;;;;;;;;;;;17.07;43.27;95930.88;10482284;28;3105;-52
2023/11/08 10:10:48;;;;;;;;;;;;;;;17.07;43.17;95931.69;10481492;28;2573;-56
2023/11/08 10:15:56;;;;;;;;;;;;;;;17.08;43.21;95929.88;10481047;28;2705;-56
2023/11/08 10:21:06;;;;;;;;;;;;;;;17.08;43.40;95922.00;10488285;28;2693;-55
2023/11/08 10:26:20;;;;;;;;;;;;;;;17.07;43.32;95915.97;10461115;28;2572;-57
2023/11/08 10:31:33;;;;;;;;;;;;;;;17.08;43.41;95911.53;10476923;28;2569;-55
2023/11/08 10:36:34;;;;;;;;;;;;;;;17.08;43.48;95901.06;10475686;28;2572;-57
2023/11/08 10:41:35;;;;;;;;;;;;;;;17.09;43.72;95892.16;10477533;28;2879;-56
2023/11/08 10:46:35;;;;;;;;;;;;;;;17.09;43.59;95881.66;10479673;28;4741;-55
2023/11/08 10:51:36;;;;;;;;;;;;;;;17.08;43.80;95882.72;10484367;28;2577;-55
2023/11/08 10:56:39;;;;;;;;;;;;;;;17.09;44.02;95879.03;10481628;28;2623;-57
2023/11/08 11:01:41;;;;;;;;;;;;;;;17.09;43.88;95872.00;10467783;28;2613;-57
2023/11/08 11:06:41;;;;;;;;;;;;;;;17.10;44.01;95870.16;10461251;28;2704;-58
2023/11/08 11:11:50;;;;;;;;;;;;;;;17.11;43.90;95861.25;10479321;28;2602;-56
2023/11/08 11:16:58;;;;;;;;;;;;;;;17.10;44.01;95857.06;10492880;28;2587;-56
2023/11/08 11:22:01;;;;;;;;;;;;;;;17.11;43.93;95840.31;10464361;28;2681;-56
2023/11/08 11:27:01;;;;;;;;;;;;;;;17.11;44.02;95845.53;10465531;28;2564;-56
2023/11/08 11:32:06;;;;;;;;;;;;;;;17.12;43.99;95833.25;10475175;28;2619;-56
2023/11/08 11:37:13;;;;;;;;;;;;;;;17.11;44.00;95837.69;10476629;28;2569;-55
2023/11/08 11:42:13;;;;;;;;;;;;;;;17.10;44.09;95842.13;10458933;28;4884;-56
2023/11/08 11:47:14;;;;;;;;;;;;;;;17.09;44.15;95843.19;10481054;28;3001;-57
2023/11/08 11:52:15;;;;;;;;;;;;;;;17.09;44.12;95842.38;10455037;28;2558;-56
2023/11/08 11:57:18;;;;;;;;;;;;;;;17.09;44.46;95835.31;10474840;28;2638;-57
2023/11/08 12:02:18;;;;;;;;;;;;;;;17.10;44.24;95830.88;10476221;28;2632;-57
2023/11/08 12:07:18;;;;;;;;;;;;;;;17.12;43.93;95822.78;10471846;28;2638;-57
2023/11/08 12:12:33;;;;;;;;;;;;;;;17.13;44.00;95819.88;10478473;28;2580;-57
2023/11/08 12:17:34;;;;;;;;;;;;;;;17.15;43.73;95811.78;10472244;28;2706;-55
2023/11/08 12:22:34;;;;;;;;;;;;;;;17.18;43.82;95811.28;10486385;28;2603;-57
2023/11/08 12:27:34;;;;;;;;;;;;;;;17.17;43.67;95800.00;10472746;28;2566;-58
2023/11/08 12:32:34;;;;;;;;;;;;;;;17.20;43.77;95806.59;10456726;28;2706;-58
2023/11/08 12:37:35;;;;;;;;;;;;;;;17.21;44.01;95811.56;10454658;28;2707;-55
2023/11/08 12:42:35;;;;;;;;;;;;;;;17.21;43.91;95801.09;10465464;28;2561;-56
2023/11/08 12:47:36;;;;;;;;;;;;;;;17.21;43.76;95803.72;10457359;28;2678;-57
2023/11/08 12:52:36;;;;;;;;;;;;;;;17.23;43.92;95804.25;10482233;28;2616;-57
2023/11/08 12:57:37;;;;;;;;;;;;;;;17.23;43.85;95796.41;10460665;28;2610;-58
2023/11/08 13:02:38;;;;;;;;;;;;;;;17.22;43.80;95786.97;10472165;28;2675;-56
2023/11/08 13:07:40;;;;;;;;;;;;;;;17.24;43.82;95790.13;10445127;28;2581;-58
2023/11/08 13:12:40;;;;;;;;;;;;;;;17.24;44.07;95792.75;10480779;28;2717;-57
2023/11/08 13:17:41;;;;;;;;;;;;;;;17.25;43.84;95778.59;10471415;28;2537;-56
2023/11/08 13:22:42;;;;;;;;;;;;;;;17.25;43.89;95773.34;10485647;28;2638;-57
2023/11/08 13:27:43;;;;;;;;;;;;;;;17.26;44.11;95771.53;10479537;28;2592;-56
2023/11/08 13:32:43;;;;;;;;;;;;;;;17.26;44.42;95767.09;10482074;28;2661;-54
2023/11/08 13:37:44;;;;;;;;;;;;;;;17.26;44.38;95761.84;10462270;28;2688;-56
2023/11/08 13:42:44;;;;;;;;;;;;;;;17.25;44.06;95749.00;10478291;28;4598;-55
2023/11/08 13:47:44;;;;;;;;;;;;;;;17.24;44.18;95740.34;10469157;28;2634;-57
2023/11/08 13:52:45;;;;;;;;;;;;;;;17.24;44.15;95745.59;10480352;28;2673;-58
2023/11/08 13:57:45;;;;;;;;;;;;;;;17.25;44.12;95749.00;10478209;28;2693;-56
2023/11/08 14:02:48;;;;;;;;;;;;;;;17.27;44.27;95744.31;10479382;28;2629;-56
2023/11/08 14:07:48;;;;;;;;;;;;;;;17.25;44.16;95734.06;10492024;28;2646;-57
2023/11/08 14:12:48;;;;;;;;;;;;;;;17.26;44.08;95735.66;10457960;28;2548;-57
2023/11/08 14:17:49;;;;;;;;;;;;;;;17.27;44.15;95737.22;10474966;28;2708;-57
2023/11/08 14:22:50;;;;;;;;;;;;;;;17.26;43.89;95722.56;10477125;28;2636;-56
2023/11/08 14:27:51;;;;;;;;;;;;;;;17.25;43.91;95728.81;10472587;28;2607;-56
2023/11/08 14:32:51;;;;;;;;;;;;;;;17.24;44.13;95735.13;10482896;28;2498;-61
2023/11/08 14:37:52;;;;;;;;;;;;;;;17.24;43.98;95732.50;10480434;28;2616;-54
2023/11/08 14:42:52;;;;;;;;;;;;;;;17.22;44.07;95731.16;10479113;28;2965;-56
2023/11/08 14:47:52;;;;;;;;;;;;;;;17.21;44.03;95727.75;10478424;28;2534;-57
2023/11/08 14:52:52;;;;;;;;;;;;;;;17.21;44.13;95721.75;10478030;28;2588;-57
2023/11/08 14:57:53;;;;;;;;;;;;;;;17.18;44.08;95712.56;10470892;28;2650;-56
2023/11/08 15:02:55;;;;;;;;;;;;;;;17.19;44.05;95719.34;10476044;28;2588;-56
2023/11/08 15:07:56;;;;;;;;;;;;;;;17.18;43.87;95715.16;10475352;28;2565;-56
2023/11/08 15:12:57;;;;;;;;;;;;;;;17.18;43.96;95712.56;10479737;28;2651;-59
2023/11/08 15:17:57;;;;;;;;;;;;;;;17.19;44.02;95708.09;10476016;28;2589;-58
2023/11/08 15:22:57;;;;;;;;;;;;;;;17.16;44.25;95704.16;10456664;28;2584;-57
2023/11/08 15:27:57;;;;;;;;;;;;;;;17.16;43.87;95701.53;10478380;28;2638;-57
2023/11/08 15:32:58;;;;;;;;;;;;;;;17.15;43.89;95702.56;10472777;28;2653;-56
2023/11/08 15:37:58;;;;;;;;;;;;;;;17.15;43.83;95694.72;10473514;28;2560;-58
2023/11/08 15:42:59;;;;;;;;;;;;;;;17.15;43.89;95697.31;10473722;28;5089;-57
2023/11/08 15:47:59;;;;;;;;;;;;;;;17.14;43.76;95693.16;10480197;28;2608;-57
2023/11/08 15:52:59;;;;;;;;;;;;;;;17.14;43.81;95695.75;10477435;28;2552;-58
2023/11/08 15:58:00;;;;;;;;;;;;;;;17.12;43.99;95692.59;10477908;28;2567;-58
2023/11/08 16:03:03;;;;;;;;;;;;;;;17.13;43.94;95696.78;10479025;28;2608;-58
2023/11/08 16:08:03;;;;;;;;;;;;;;;17.12;43.98;95686.56;10481278;28;2560;-58
2023/11/08 16:13:04;;;;;;;;;;;;;;;17.11;43.90;95680.53;10480025;28;2714;-58
2023/11/08 16:18:04;;;;;;;;;;;;;;;17.12;43.96;95681.34;10480799;28;2723;-59
2023/11/08 16:23:05;;;;;;;;;;;;;;;17.11;43.90;95677.91;10473696;28;2640;-57
2023/11/08 16:28:05;;;;;;;;;;;;;;;17.10;43.80;95679.75;10476417;28;2552;-57
2023/11/08 16:33:07;;;;;;;;;;;;;;;17.09;43.88;95672.94;10478598;28;2592;-56
2023/11/08 16:38:07;;;;;;;;;;;;;;;17.09;43.88;95680.81;10467636;28;2615;-58
2023/11/08 16:43:07;;;;;;;;;;;;;;;17.09;43.71;95674.78;10477481;28;4815;-58
2023/11/08 16:48:08;;;;;;;;;;;;;;;17.07;43.72;95675.03;10479221;28;2583;-57
2023/11/08 16:53:09;;;;;;;;;;;;;;;17.09;43.80;95661.69;10490684;28;2554;-57
2023/11/08 16:58:11;;;;;;;;;;;;;;;17.07;43.74;95669.78;10475554;28;2580;-56
2023/11/08 17:03:13;;;;;;;;;;;;;;;17.08;43.90;95665.34;10480254;28;2989;-58
2023/11/08 17:08:14;;;;;;;;;;;;;;;17.06;43.86;95673.44;10488980;28;2549;-58
2023/11/08 17:13:14;;;;;;;;;;;;;;;17.07;43.85;95680.25;10482663;28;2556;-57
2023/11/08 17:18:15;;;;;;;;;;;;;;;17.07;43.71;95688.13;10479050;28;2684;-57
2023/11/08 17:23:15;;;;;;;;;;;;;;;17.06;43.54;95699.63;10483308;28;2868;-58
2023/11/08 17:28:16;;;;;;;;;;;;;;;17.06;43.80;95689.16;10482127;28;2592;-56
2023/11/08 17:33:16;;;;;;;;;;;;;;;17.05;43.64;95686.78;10474655;28;2788;-56
2023/11/08 17:38:17;;;;;;;;;;;;;;;17.04;43.68;95683.38;10481663;28;2574;-57
2023/11/08 17:43:17;;;;;;;;;;;;;;;17.05;43.60;95681.56;10475951;28;4607;-57
2023/11/08 17:48:18;;;;;;;;;;;;;;;17.05;43.70;95682.34;10441395;28;2635;-55
2023/11/08 17:53:19;;;;;;;;;;;;;;;17.05;43.71;95678.94;10475378;28;2631;-57
2023/11/08 17:58:19;;;;;;;;;;;;;;;17.05;43.73;95671.88;10478873;28;2612;-56
2023/11/08 18:03:19;;;;;;;;;;;;;;;17.16;43.62;95662.25;10480229;28;2643;-57
2023/11/08 18:08:20;;;;;;;;;;;;;;;17.29;43.74;95669.63;10485658;28;2009;-57
2023/11/08 18:13:20;;;;;;;;;;;;;;;17.41;43.63;95672.88;10480240;28;1519;-57
2023/11/08 18:18:20;;;;;;;;;;;;;;;17.55;43.53;95678.44;10483940;28;1604;-53
2023/11/08 18:23:20;;;;;;;;;;;;;;;17.65;43.32;95674.03;10481221;28;1971;-54
2023/11/08 18:28:21;;;;;;;;;;;;;;;17.72;43.14;95666.72;10485429;28;1968;-56
2023/11/08 18:33:24;;;;;;;;;;;;;;;17.79;43.38;95667.28;10484555;28;1545;-57
2023/11/08 18:38:24;;;;;;;;;;;;;;;17.85;43.00;95670.69;10481360;28;2301;-56
2023/11/08 18:43:26;;;;;;;;;;;;;;;17.91;42.91;95666.28;10481202;28;4868;-55
2023/11/08 18:48:26;;;;;;;;;;;;;;;17.95;42.59;95662.09;10482484;28;1902;-58
2023/11/08 18:53:27;;;;;;;;;;;;;;;17.96;42.50;95658.41;10466702;28;1676;-55
2023/11/08 18:58:27;;;;;;;;;;;;;;;18.00;42.63;95654.22;10478240;28;1559;-57
2023/11/08 19:03:28;;;;;;;;;;;;;;;17.99;42.33;95642.94;10480311;28;1646;-57
2023/11/08 19:08:29;;;;;;;;;;;;;;;18.00;42.68;95643.72;10490241;28;1963;-57
2023/11/08 19:13:32;;;;;;;;;;;;;;;18.02;42.28;95631.13;10487098;28;1432;-55
2023/11/08 19:18:32;;;;;;;;;;;;;;;18.06;42.33;95629.56;10444284;28;2138;-56
2023/11/08 19:23:32;;;;;;;;;;;;;;;18.01;42.25;95626.94;10488352;28;1517;-56
2023/11/08 19:28:33;;;;;;;;;;;;;;;18.05;42.11;95622.75;10484325;28;1961;-58
2023/11/08 19:33:33;;;;;;;;;;;;;;;18.05;42.27;95617.50;10453359;28;1671;-57
2023/11/08 19:38:34;;;;;;;;;;;;;;;18.09;42.19;95613.31;10461371;28;1486;-57
2023/11/08 19:43:35;;;;;;;;;;;;;;;18.10;42.15;95607.81;10464452;28;4837;-57
2023/11/08 19:48:35;;;;;;;;;;;;;;;18.08;42.08;95590.75;10489909;28;1973;-58
2023/11/08 19:53:35;;;;;;;;;;;;;;;18.09;42.01;95587.88;10479906;28;1653;-58
2023/11/08 19:58:36;;;;;;;;;;;;;;;18.08;42.09;95588.13;10479389;28;1342;-58
2023/11/08 20:03:36;;;;;;;;;;;;;;;18.07;42.25;95578.69;10460883;28;2547;-57
2023/11/08 20:08:37;;;;;;;;;;;;;;;18.10;42.10;95575.53;10477622;28;1961;-54
2023/11/08 20:13:37;;;;;;;;;;;;;;;18.06;41.92;95561.38;10480701;28;1656;-56
2023/11/08 20:18:37;;;;;;;;;;;;;;;18.05;41.75;95560.59;10475120;28;1507;-56
2023/11/08 20:23:38;;;;;;;;;;;;;;;18.06;41.67;95558.75;10485088;28;1421;-57
2023/11/08 20:28:39;;;;;;;;;;;;;;;18.07;41.78;95547.22;10485334;28;1995;-55
2023/11/08 20:33:39;;;;;;;;;;;;;;;18.06;41.78;95545.63;10487590;28;1795;-57
2023/11/08 20:38:40;;;;;;;;;;;;;;;18.08;41.74;95543.53;10486007;28;1586;-56
2023/11/08 20:43:41;;;;;;;;;;;;;;;18.06;41.65;95541.19;10469863;28;4829;-57
2023/11/08 20:48:44;;;;;;;;;;;;;;;18.06;41.66;95535.94;10480142;28;2545;-58
2023/11/08 20:53:45;;;;;;;;;;;;;;;18.10;41.68;95536.97;10475915;28;2550;-58
2023/11/08 20:58:47;;;;;;;;;;;;;;;18.11;41.46;95530.69;10475457;28;2639;-58
2023/11/08 21:03:48;;;;;;;;;;;;;;;18.11;41.57;95525.47;10481498;28;2556;-58
2023/11/08 21:08:49;;;;;;;;;;;;;;;18.06;41.59;95514.16;10475829;28;2612;-57
2023/11/08 21:13:49;;;;;;;;;;;;;;;18.00;41.47;95509.97;10481910;28;2997;-57
2023/11/08 21:18:50;;;;;;;;;;;;;;;17.84;41.74;95507.34;10478442;28;2589;-58
2023/11/08 21:23:50;;;;;;;;;;;;;;;17.74;41.91;95507.31;10483661;28;2611;-55
2023/11/08 21:28:50;;;;;;;;;;;;;;;17.64;42.05;95507.31;10474866;28;2644;-56
2023/11/08 21:33:51;;;;;;;;;;;;;;;17.61;42.14;95494.75;10479944;28;2601;-56
2023/11/08 21:38:51;;;;;;;;;;;;;;;17.58;42.27;95486.59;10474450;28;2545;-58
2023/11/08 21:43:53;;;;;;;;;;;;;;;17.51;42.26;95476.41;10478945;28;4756;-58
2023/11/08 21:48:54;;;;;;;;;;;;;;;17.45;42.71;95466.94;10478200;28;2607;-58
2023/11/08 21:53:54;;;;;;;;;;;;;;;17.43;42.92;95462.97;10474455;28;2757;-58
2023/11/08 21:58:55;;;;;;;;;;;;;;;17.38;43.13;95463.75;10484851;28;2681;-57
2023/11/08 22:03:55;;;;;;;;;;;;;;;17.36;43.14;95450.13;10476993;28;2597;-58
2023/11/08 22:08:55;;;;;;;;;;;;;;;17.32;43.59;95445.66;10481802;28;2597;-58
2023/11/08 22:13:55;;;;;;;;;;;;;;;17.29;43.59;95431.25;10479889;28;2626;-57
2023/11/08 22:18:58;;;;;;;;;;;;;;;17.27;43.97;95435.97;10474599;28;2583;-58
2023/11/08 22:23:58;;;;;;;;;;;;;;;17.25;43.86;95424.19;10480106;28;2681;-59
2023/11/08 22:28:58;;;;;;;;;;;;;;;17.23;43.60;95416.56;10475864;28;2552;-59
2023/11/08 22:33:59;;;;;;;;;;;;;;;17.20;43.65;95406.63;10481643;28;2661;-58
2023/11/08 22:39:00;;;;;;;;;;;;;;;17.18;43.52;95408.72;10463697;28;3100;-59
2023/11/08 22:44:00;;;;;;;;;;;;;;;17.18;43.80;95410.53;10475024;28;4799;-59
2023/11/08 22:49:01;;;;;;;;;;;;;;;17.16;43.67;95400.34;10454961;28;2532;-59
2023/11/08 22:54:05;;;;;;;;;;;;;;;17.15;43.85;95395.34;10482122;28;2594;-59
2023/11/08 22:59:05;;;;;;;;;;;;;;;17.12;43.90;95380.16;10477983;28;2608;-58
2023/11/08 23:04:05;;;;;;;;;;;;;;;17.10;43.78;95386.44;10483317;28;2548;-59
2023/11/08 23:09:08;;;;;;;;;;;;;;;17.09;44.07;95381.47;10477577;28;2527;-59
2023/11/08 23:14:08;;;;;;;;;;;;;;;17.09;43.88;95378.84;10482338;28;2698;-59
2023/11/08 23:19:09;;;;;;;;;;;;;;;17.06;44.30;95376.75;10458865;28;2671;-57
2023/11/08 23:24:11;;;;;;;;;;;;;;;17.05;43.87;95373.34;10470793;28;2588;-59
2023/11/08 23:29:12;;;;;;;;;;;;;;;17.05;43.86;95375.16;10474512;28;2546;-59
2023/11/08 23:34:12;;;;;;;;;;;;;;;17.04;43.93;95365.75;10477436;28;2576;-59
2023/11/08 23:39:14;;;;;;;;;;;;;;;17.02;44.21;95357.38;10478401;28;2557;-59
2023/11/08 23:44:14;;;;;;;;;;;;;;;17.01;44.14;95356.59;10459341;28;4884;-58
2023/11/08 23:49:15;;;;;;;;;;;;;;;17.00;43.82;95349.75;10471432;28;2591;-55
2023/11/08 23:54:15;;;;;;;;;;;;;;;16.99;44.00;95353.44;10470227;28;2767;-58
2023/11/08 23:59:16;;;;;;;;;;;;;;;16.98;44.03;95345.84;10474579;28;2738;-58
